createdAt,value
2022-09-17T00:00:14.394Z,11.32
2022-09-17T00:01:14.388Z,11.32
2022-09-17T00:02:14.431Z,11.32
2022-09-17T00:03:14.464Z,11.30
2022-09-17T00:04:14.334Z,11.29
2022-09-17T00:05:14.324Z,11.27
2022-09-17T00:06:14.313Z,11.27
2022-09-17T00:07:14.304Z,11.27
2022-09-17T00:08:14.285Z,11.27
2022-09-17T00:09:14.295Z,11.26
2022-09-17T00:10:14.255Z,11.23
2022-09-17T00:11:14.275Z,11.19
2022-09-17T00:12:14.238Z,11.17
2022-09-17T00:13:14.223Z,11.17
2022-09-17T00:14:14.206Z,11.17
2022-09-17T00:15:17.197Z,11.17
2022-09-17T00:16:17.275Z,11.18
2022-09-17T00:17:14.168Z,11.15
2022-09-17T00:18:14.158Z,11.15
2022-09-17T00:19:14.139Z,11.11
2022-09-17T00:20:14.128Z,11.11
2022-09-17T00:21:14.121Z,11.12
2022-09-17T00:22:14.129Z,11.11
2022-09-17T00:23:14.089Z,11.10
2022-09-17T00:24:14.104Z,11.08
2022-09-17T00:25:14.110Z,11.04
2022-09-17T00:26:14.048Z,11.04
2022-09-17T00:27:14.040Z,11.04
2022-09-17T00:28:14.052Z,10.99
2022-09-17T00:29:14.018Z,10.99
2022-09-17T00:30:14.961Z,11.00
2022-09-17T00:31:14.081Z,11.00
2022-09-17T00:32:14.001Z,11.04
2022-09-17T00:33:13.962Z,11.04
2022-09-17T00:34:13.973Z,11.07
2022-09-17T00:35:16.935Z,11.05
2022-09-17T00:36:16.937Z,11.08
2022-09-17T00:37:13.912Z,11.10
2022-09-17T00:38:13.893Z,11.10
2022-09-17T00:39:13.904Z,11.11
2022-09-17T00:40:14.686Z,11.14
2022-09-17T00:41:13.976Z,11.18
2022-09-17T00:42:14.008Z,11.27
2022-09-17T00:43:13.995Z,11.35
2022-09-17T00:44:13.896Z,11.41
2022-09-17T00:45:14.027Z,11.45
2022-09-17T00:46:13.896Z,11.51
2022-09-17T00:47:13.896Z,11.57
2022-09-17T00:48:13.854Z,11.60
2022-09-17T00:49:13.778Z,11.63
2022-09-17T00:50:14.747Z,11.66
2022-09-17T00:51:13.800Z,11.68
2022-09-17T00:52:13.759Z,11.69
2022-09-17T00:53:13.769Z,11.70
2022-09-17T00:54:13.749Z,11.70
2022-09-17T00:55:17.673Z,11.70
2022-09-17T00:56:16.686Z,11.72
2022-09-17T00:57:13.649Z,11.70
2022-09-17T00:58:13.639Z,11.72
2022-09-17T00:59:13.664Z,11.72
2022-09-17T01:00:14.371Z,11.68
2022-09-17T01:01:13.661Z,11.68
2022-09-17T01:02:13.631Z,11.66
2022-09-17T01:03:13.572Z,11.66
2022-09-17T01:04:13.566Z,11.68
2022-09-17T01:05:14.291Z,11.65
2022-09-17T01:06:13.738Z,11.63
2022-09-17T01:07:13.573Z,11.63
2022-09-17T01:08:13.582Z,11.60
2022-09-17T01:09:13.532Z,11.55
2022-09-17T01:10:14.222Z,11.57
2022-09-17T01:11:13.472Z,11.57
2022-09-17T01:12:13.453Z,11.62
2022-09-17T01:13:13.445Z,11.63
2022-09-17T01:14:13.454Z,11.65
2022-09-17T01:15:17.440Z,11.66
2022-09-17T01:16:16.642Z,11.72
2022-09-17T01:17:13.556Z,11.72
2022-09-17T01:18:13.455Z,11.73
2022-09-17T01:19:13.374Z,11.73
2022-09-17T01:20:13.396Z,11.75
2022-09-17T01:21:13.407Z,11.78
2022-09-17T01:22:13.709Z,11.78
2022-09-17T01:23:13.430Z,11.81
2022-09-17T01:24:13.326Z,11.83
2022-09-17T01:25:13.451Z,11.83
2022-09-17T01:26:13.277Z,11.84
2022-09-17T01:27:13.271Z,11.83
2022-09-17T01:28:13.268Z,11.83
2022-09-17T01:29:13.238Z,11.84
2022-09-17T01:30:13.983Z,11.86
2022-09-17T01:31:13.250Z,11.84
2022-09-17T01:32:13.278Z,11.84
2022-09-17T01:33:13.249Z,11.87
2022-09-17T01:34:13.209Z,11.84
2022-09-17T01:35:17.629Z,11.84
2022-09-17T01:36:16.189Z,11.86
2022-09-17T01:37:13.130Z,11.81
2022-09-17T01:38:13.132Z,11.77
2022-09-17T01:39:13.136Z,11.65
2022-09-17T01:40:13.119Z,11.59
2022-09-17T01:41:13.084Z,11.51
2022-09-17T01:42:13.074Z,11.48
2022-09-17T01:43:13.063Z,11.40
2022-09-17T01:44:13.093Z,11.33
2022-09-17T01:45:13.037Z,11.27
2022-09-17T01:46:13.070Z,11.26
2022-09-17T01:47:14.279Z,11.22
2022-09-17T01:48:12.986Z,11.19
2022-09-17T01:49:12.984Z,11.19
2022-09-17T01:50:13.015Z,11.23
2022-09-17T01:51:12.957Z,11.22
2022-09-17T01:52:12.936Z,11.25
2022-09-17T01:53:12.929Z,11.25
2022-09-17T01:54:12.906Z,11.26
2022-09-17T01:55:16.667Z,11.26
2022-09-17T01:56:15.927Z,11.27
2022-09-17T01:57:12.877Z,11.25
2022-09-17T01:58:12.849Z,11.25
2022-09-17T01:59:12.838Z,11.27
2022-09-17T02:00:12.829Z,11.29
2022-09-17T02:01:12.921Z,11.29
2022-09-17T02:02:12.860Z,11.26
2022-09-17T02:03:12.816Z,11.23
2022-09-17T02:04:12.781Z,11.19
2022-09-17T02:05:12.768Z,11.19
2022-09-17T02:06:12.749Z,11.18
2022-09-17T02:07:12.910Z,11.19
2022-09-17T02:08:12.730Z,11.19
2022-09-17T02:09:15.473Z,11.19
2022-09-17T02:10:12.705Z,11.18
2022-09-17T02:11:12.688Z,11.19
2022-09-17T02:12:12.660Z,11.22
2022-09-17T02:13:12.692Z,11.19
2022-09-17T02:14:12.641Z,11.22
2022-09-17T02:15:15.622Z,11.22
2022-09-17T02:16:15.665Z,11.25
2022-09-17T02:17:12.631Z,11.23
2022-09-17T02:18:12.582Z,11.25
2022-09-17T02:19:12.574Z,11.25
2022-09-17T02:20:12.563Z,11.26
2022-09-17T02:21:12.543Z,11.26
2022-09-17T02:22:12.554Z,11.26
2022-09-17T02:23:12.524Z,11.26
2022-09-17T02:24:12.508Z,11.29
2022-09-17T02:25:12.494Z,11.29
2022-09-17T02:26:12.475Z,11.29
2022-09-17T02:27:12.496Z,11.30
2022-09-17T02:28:12.455Z,11.29
2022-09-17T02:29:12.456Z,11.27
2022-09-17T02:30:12.426Z,11.26
2022-09-17T02:31:12.459Z,11.25
2022-09-17T02:32:12.447Z,11.19
2022-09-17T02:33:12.430Z,11.18
2022-09-17T02:34:12.388Z,11.18
2022-09-17T02:35:15.377Z,11.18
2022-09-17T02:36:15.378Z,11.19
2022-09-17T02:37:12.347Z,11.18
2022-09-17T02:38:12.357Z,11.15
2022-09-17T02:39:12.339Z,11.17
2022-09-17T02:40:12.338Z,11.11
2022-09-17T02:41:12.298Z,11.11
2022-09-17T02:42:12.282Z,11.11
2022-09-17T02:43:12.284Z,11.10
2022-09-17T02:44:12.280Z,11.08
2022-09-17T02:45:12.250Z,11.08
2022-09-17T02:46:12.255Z,11.07
2022-09-17T02:47:12.221Z,11.05
2022-09-17T02:48:12.202Z,11.05
2022-09-17T02:49:12.212Z,11.05
2022-09-17T02:50:12.172Z,11.07
2022-09-17T02:51:12.172Z,11.05
2022-09-17T02:52:12.142Z,11.07
2022-09-17T02:53:12.164Z,11.07
2022-09-17T02:54:12.127Z,11.08
2022-09-17T02:55:15.133Z,11.07
2022-09-17T02:56:15.103Z,11.08
2022-09-17T02:57:12.082Z,11.08
2022-09-17T02:58:12.077Z,11.08
2022-09-17T02:59:12.055Z,11.10
2022-09-17T03:00:12.041Z,11.08
2022-09-17T03:01:12.156Z,11.08
2022-09-17T03:02:12.081Z,11.08
2022-09-17T03:03:12.017Z,11.10
2022-09-17T03:04:11.986Z,11.10
2022-09-17T03:05:12.012Z,11.10
2022-09-17T03:06:11.986Z,11.10
2022-09-17T03:07:11.951Z,11.10
2022-09-17T03:08:11.937Z,11.10
2022-09-17T03:09:11.929Z,11.10
2022-09-17T03:10:11.908Z,11.10
2022-09-17T03:11:11.953Z,11.08
2022-09-17T03:12:11.882Z,11.10
2022-09-17T03:13:11.871Z,11.10
2022-09-17T03:14:11.856Z,11.10
2022-09-17T03:15:14.850Z,11.07
2022-09-17T03:16:14.930Z,11.08
2022-09-17T03:17:11.819Z,11.04
2022-09-17T03:18:11.809Z,11.04
2022-09-17T03:19:11.789Z,11.02
2022-09-17T03:20:11.785Z,11.04
2022-09-17T03:21:11.789Z,11.04
2022-09-17T03:22:11.750Z,11.02
2022-09-17T03:23:11.893Z,11.00
2022-09-17T03:24:11.736Z,10.99
2022-09-17T03:25:11.712Z,10.97
2022-09-17T03:26:11.702Z,10.96
2022-09-17T03:27:11.683Z,10.97
2022-09-17T03:28:11.684Z,10.97
2022-09-17T03:29:11.683Z,10.96
2022-09-17T03:30:11.674Z,10.96
2022-09-17T03:31:11.774Z,10.94
2022-09-17T03:32:11.635Z,10.93
2022-09-17T03:33:11.605Z,10.93
2022-09-17T03:34:11.776Z,10.93
2022-09-17T03:35:14.586Z,10.92
2022-09-17T03:36:14.585Z,10.90
2022-09-17T03:37:11.559Z,10.84
2022-09-17T03:38:11.546Z,10.84
2022-09-17T03:39:11.537Z,10.79
2022-09-17T03:40:11.586Z,10.76
2022-09-17T03:41:11.510Z,10.74
2022-09-17T03:42:11.490Z,10.72
2022-09-17T03:43:11.477Z,10.69
2022-09-17T03:44:11.467Z,10.67
2022-09-17T03:45:11.482Z,10.64
2022-09-17T03:46:11.525Z,10.63
2022-09-17T03:47:11.430Z,10.60
2022-09-17T03:48:11.418Z,10.61
2022-09-17T03:49:11.400Z,10.60
2022-09-17T03:50:11.418Z,10.59
2022-09-17T03:51:11.394Z,10.61
2022-09-17T03:52:11.360Z,10.63
2022-09-17T03:53:11.354Z,10.67
2022-09-17T03:54:11.336Z,10.68
2022-09-17T03:55:14.341Z,10.69
2022-09-17T03:56:14.342Z,10.71
2022-09-17T03:57:11.298Z,10.71
2022-09-17T03:58:11.283Z,10.68
2022-09-17T03:59:11.262Z,10.69
2022-09-17T04:00:11.283Z,10.69
2022-09-17T04:01:11.360Z,10.69
2022-09-17T04:02:11.369Z,10.71
2022-09-17T04:03:11.215Z,10.72
2022-09-17T04:04:11.202Z,10.71
2022-09-17T04:05:11.214Z,10.69
2022-09-17T04:06:11.235Z,10.68
2022-09-17T04:07:11.170Z,10.67
2022-09-17T04:08:11.147Z,10.63
2022-09-17T04:09:11.125Z,10.63
2022-09-17T04:10:11.116Z,10.61
2022-09-17T04:11:11.115Z,10.61
2022-09-17T04:12:11.287Z,10.61
2022-09-17T04:13:11.076Z,10.63
2022-09-17T04:14:11.074Z,10.63
2022-09-17T04:15:14.048Z,10.63
2022-09-17T04:16:14.118Z,10.64
2022-09-17T04:17:11.018Z,10.64
2022-09-17T04:18:11.172Z,10.67
2022-09-17T04:19:10.998Z,10.67
2022-09-17T04:20:10.992Z,10.68
2022-09-17T04:21:10.978Z,10.69
2022-09-17T04:22:10.960Z,10.71
2022-09-17T04:23:10.952Z,10.69
2022-09-17T04:24:10.960Z,10.68
2022-09-17T04:25:10.919Z,10.68
2022-09-17T04:26:10.910Z,10.68
2022-09-17T04:27:10.901Z,10.68
2022-09-17T04:28:10.903Z,10.64
2022-09-17T04:29:10.861Z,10.63
2022-09-17T04:30:10.881Z,10.61
2022-09-17T04:31:10.874Z,10.60
2022-09-17T04:32:10.824Z,10.59
2022-09-17T04:33:10.810Z,10.60
2022-09-17T04:34:10.804Z,10.57
2022-09-17T04:35:13.812Z,10.59
2022-09-17T04:36:13.784Z,10.60
2022-09-17T04:37:10.754Z,10.59
2022-09-17T04:38:10.743Z,10.57
2022-09-17T04:39:10.735Z,10.57
2022-09-17T04:40:10.822Z,10.60
2022-09-17T04:41:10.704Z,10.61
2022-09-17T04:42:10.694Z,10.60
2022-09-17T04:43:10.677Z,10.63
2022-09-17T04:44:10.669Z,10.64
2022-09-17T04:45:10.646Z,10.63
2022-09-17T04:46:10.704Z,10.67
2022-09-17T04:47:10.652Z,10.64
2022-09-17T04:48:10.609Z,10.63
2022-09-17T04:49:10.597Z,10.60
2022-09-17T04:50:10.607Z,10.61
2022-09-17T04:51:10.568Z,10.60
2022-09-17T04:52:10.583Z,10.59
2022-09-17T04:53:10.539Z,10.57
2022-09-17T04:54:10.529Z,10.54
2022-09-17T04:55:13.508Z,10.53
2022-09-17T04:56:13.584Z,10.53
2022-09-17T04:57:10.490Z,10.49
2022-09-17T04:58:10.470Z,10.49
2022-09-17T04:59:10.451Z,10.48
2022-09-17T05:00:10.443Z,10.46
2022-09-17T05:01:10.478Z,10.46
2022-09-17T05:02:10.529Z,10.42
2022-09-17T05:03:10.420Z,10.44
2022-09-17T05:04:10.390Z,10.46
2022-09-17T05:05:10.382Z,10.44
2022-09-17T05:06:10.412Z,10.42
2022-09-17T05:07:13.362Z,10.42
2022-09-17T05:08:10.342Z,10.42
2022-09-17T05:09:10.321Z,10.42
2022-09-17T05:10:10.305Z,10.41
2022-09-17T05:11:10.293Z,10.40
2022-09-17T05:12:10.314Z,10.37
2022-09-17T05:13:10.264Z,10.34
2022-09-17T05:14:10.246Z,10.33
2022-09-17T05:15:13.234Z,10.31
2022-09-17T05:16:13.297Z,10.30
2022-09-17T05:17:10.235Z,10.28
2022-09-17T05:18:10.211Z,10.28
2022-09-17T05:19:10.184Z,10.28
2022-09-17T05:20:10.202Z,10.25
2022-09-17T05:21:10.159Z,10.22
2022-09-17T05:22:10.146Z,10.22
2022-09-17T05:23:10.144Z,10.22
2022-09-17T05:24:10.138Z,10.25
2022-09-17T05:25:10.119Z,10.23
2022-09-17T05:26:10.096Z,10.26
2022-09-17T05:27:10.078Z,10.26
2022-09-17T05:28:10.068Z,10.30
2022-09-17T05:29:10.079Z,10.28
2022-09-17T05:30:10.046Z,10.30
2022-09-17T05:31:10.075Z,10.31
2022-09-17T05:32:10.000Z,10.33
2022-09-17T05:33:10.001Z,10.34
2022-09-17T05:34:10.020Z,10.34
2022-09-17T05:35:12.970Z,10.37
2022-09-17T05:36:13.001Z,10.37
2022-09-17T05:37:09.941Z,10.37
2022-09-17T05:38:09.929Z,10.38
2022-09-17T05:39:09.902Z,10.44
2022-09-17T05:40:09.956Z,10.51
2022-09-17T05:41:09.913Z,10.63
2022-09-17T05:42:09.869Z,10.75
2022-09-17T05:43:09.858Z,10.86
2022-09-17T05:44:09.844Z,10.92
2022-09-17T05:45:09.835Z,10.99
2022-09-17T05:46:09.850Z,11.05
2022-09-17T05:47:09.802Z,11.07
2022-09-17T05:48:09.784Z,11.11
2022-09-17T05:49:09.774Z,11.14
2022-09-17T05:50:09.768Z,11.08
2022-09-17T05:51:09.776Z,11.07
2022-09-17T05:52:09.735Z,11.02
2022-09-17T05:53:09.715Z,10.96
2022-09-17T05:54:09.707Z,10.93
2022-09-17T05:55:12.706Z,10.94
2022-09-17T05:56:12.725Z,10.96
2022-09-17T05:57:09.668Z,10.92
2022-09-17T05:58:09.686Z,10.96
2022-09-17T05:59:09.663Z,11.00
2022-09-17T06:00:09.638Z,11.04
2022-09-17T06:01:09.648Z,11.08
2022-09-17T06:02:09.638Z,11.11
2022-09-17T06:03:09.739Z,11.18
2022-09-17T06:04:09.579Z,11.27
2022-09-17T06:05:09.582Z,11.32
2022-09-17T06:06:09.580Z,11.40
2022-09-17T06:07:09.569Z,11.44
2022-09-17T06:08:09.535Z,11.45
2022-09-17T06:09:09.538Z,11.43
2022-09-17T06:10:09.501Z,11.43
2022-09-17T06:11:09.481Z,11.43
2022-09-17T06:12:09.501Z,11.40
2022-09-17T06:13:09.474Z,11.43
2022-09-17T06:14:09.451Z,11.41
2022-09-17T06:15:12.433Z,11.37
2022-09-17T06:16:12.484Z,11.40
2022-09-17T06:17:09.463Z,11.33
2022-09-17T06:18:09.403Z,11.32
2022-09-17T06:19:09.383Z,11.29
2022-09-17T06:20:09.379Z,11.29
2022-09-17T06:21:09.359Z,11.32
2022-09-17T06:22:09.344Z,11.37
2022-09-17T06:23:13.950Z,11.44
2022-09-17T06:24:10.326Z,11.51
2022-09-17T06:25:09.304Z,11.59
2022-09-17T06:26:09.297Z,11.66
2022-09-17T06:27:09.306Z,11.73
2022-09-17T06:28:09.267Z,11.81
2022-09-17T06:29:09.259Z,11.84
2022-09-17T06:30:09.241Z,11.80
2022-09-17T06:31:09.252Z,11.83
2022-09-17T06:32:09.237Z,11.87
2022-09-17T06:33:09.198Z,11.88
2022-09-17T06:34:09.190Z,11.99
2022-09-17T06:35:12.168Z,12.04
2022-09-17T06:36:13.911Z,12.13
2022-09-17T06:37:09.170Z,12.15
2022-09-17T06:38:09.130Z,12.18
2022-09-17T06:39:09.109Z,12.17
2022-09-17T06:40:09.174Z,12.21
2022-09-17T06:41:09.088Z,12.20
2022-09-17T06:42:09.070Z,12.21
2022-09-17T06:43:09.079Z,12.21
2022-09-17T06:44:09.075Z,12.20
2022-09-17T06:45:13.267Z,12.22
2022-09-17T06:46:10.074Z,12.24
2022-09-17T06:47:09.028Z,12.22
2022-09-17T06:48:08.986Z,12.21
2022-09-17T06:49:08.963Z,12.13
2022-09-17T06:50:08.955Z,12.10
2022-09-17T06:51:08.933Z,12.00
2022-09-17T06:52:08.964Z,11.97
2022-09-17T06:53:08.914Z,11.88
2022-09-17T06:54:08.905Z,11.86
2022-09-17T06:55:11.893Z,11.83
2022-09-17T06:56:11.892Z,11.80
2022-09-17T06:57:08.914Z,11.75
2022-09-17T06:58:08.841Z,11.75
2022-09-17T06:59:08.826Z,11.75
2022-09-17T07:00:08.818Z,11.75
2022-09-17T07:01:08.816Z,11.78
2022-09-17T07:02:08.838Z,11.81
2022-09-17T07:03:08.797Z,11.88
2022-09-17T07:04:08.784Z,12.02
2022-09-17T07:05:08.738Z,12.18
2022-09-17T07:06:08.843Z,12.31
2022-09-17T07:07:08.710Z,12.43
2022-09-17T07:08:08.752Z,12.45
2022-09-17T07:09:10.989Z,12.42
2022-09-17T07:10:08.740Z,12.24
2022-09-17T07:11:08.710Z,11.94
2022-09-17T07:12:08.801Z,11.77
2022-09-17T07:13:08.649Z,11.62
2022-09-17T07:14:08.660Z,11.43
2022-09-17T07:15:11.601Z,11.26
2022-09-17T07:16:11.681Z,11.25
2022-09-17T07:17:08.561Z,11.17
2022-09-17T07:18:08.559Z,11.04
2022-09-17T07:19:09.111Z,10.96
2022-09-17T07:20:08.558Z,10.86
2022-09-17T07:21:08.513Z,10.76
2022-09-17T07:22:08.583Z,10.78
2022-09-17T07:23:08.483Z,10.79
2022-09-17T07:24:08.474Z,10.76
2022-09-17T07:25:08.483Z,10.76
2022-09-17T07:26:08.455Z,10.75
2022-09-17T07:27:08.592Z,10.79
2022-09-17T07:28:08.426Z,10.82
2022-09-17T07:29:08.416Z,10.87
2022-09-17T07:30:08.404Z,10.89
2022-09-17T07:31:12.408Z,10.90
2022-09-17T07:32:09.438Z,10.92
2022-09-17T07:33:08.357Z,10.93
2022-09-17T07:34:08.348Z,10.93
2022-09-17T07:35:11.338Z,10.93
2022-09-17T07:36:11.327Z,10.96
2022-09-17T07:37:08.308Z,10.97
2022-09-17T07:38:08.320Z,10.97
2022-09-17T07:39:08.277Z,10.99
2022-09-17T07:40:08.362Z,11.02
2022-09-17T07:41:08.296Z,11.05
2022-09-17T07:42:08.241Z,11.04
2022-09-17T07:43:08.229Z,11.07
2022-09-17T07:44:08.222Z,11.08
2022-09-17T07:45:08.211Z,11.14
2022-09-17T07:46:08.234Z,11.17
2022-09-17T07:47:08.203Z,11.17
2022-09-17T07:48:08.164Z,11.19
2022-09-17T07:49:08.158Z,11.22
2022-09-17T07:50:08.163Z,11.26
2022-09-17T07:51:08.863Z,11.29
2022-09-17T07:52:08.114Z,11.29
2022-09-17T07:53:08.133Z,11.32
2022-09-17T07:54:08.090Z,11.35
2022-09-17T07:55:11.078Z,11.35
2022-09-17T07:56:11.978Z,11.37
2022-09-17T07:57:08.056Z,11.41
2022-09-17T07:58:08.036Z,11.44
2022-09-17T07:59:08.057Z,11.45
2022-09-17T08:00:08.016Z,11.50
2022-09-17T08:01:07.996Z,11.52
2022-09-17T08:02:08.093Z,11.50
2022-09-17T08:03:08.032Z,11.48
2022-09-17T08:04:07.961Z,11.50
2022-09-17T08:05:07.948Z,11.48
2022-09-17T08:06:07.927Z,11.47
2022-09-17T08:07:07.938Z,11.47
2022-09-17T08:08:07.909Z,11.50
2022-09-17T08:09:07.918Z,11.57
2022-09-17T08:10:07.877Z,11.68
2022-09-17T08:11:07.862Z,11.78
2022-09-17T08:12:07.849Z,11.88
2022-09-17T08:13:07.868Z,11.97
2022-09-17T08:14:07.820Z,12.03
2022-09-17T08:15:10.801Z,12.12
2022-09-17T08:16:10.828Z,12.25
2022-09-17T08:17:07.831Z,12.32
2022-09-17T08:18:07.760Z,12.46
2022-09-17T08:19:07.742Z,12.64
2022-09-17T08:20:07.731Z,12.75
2022-09-17T08:21:07.730Z,12.67
2022-09-17T08:22:07.702Z,12.83
2022-09-17T08:23:07.721Z,13.01
2022-09-17T08:24:07.683Z,13.16
2022-09-17T08:25:07.668Z,13.23
2022-09-17T08:26:07.645Z,13.41
2022-09-17T08:27:07.664Z,13.49
2022-09-17T08:28:07.622Z,13.52
2022-09-17T08:29:07.623Z,13.54
2022-09-17T08:30:07.626Z,13.68
2022-09-17T08:31:07.668Z,13.68
2022-09-17T08:32:07.596Z,13.56
2022-09-17T08:33:07.558Z,13.42
2022-09-17T08:34:07.539Z,13.28
2022-09-17T08:35:10.560Z,13.19
2022-09-17T08:36:10.530Z,13.08
2022-09-17T08:37:07.529Z,12.97
2022-09-17T08:38:07.487Z,12.85
2022-09-17T08:39:07.478Z,12.76
2022-09-17T08:40:07.559Z,12.64
2022-09-17T08:41:07.451Z,12.55
2022-09-17T08:42:07.489Z,12.53
2022-09-17T08:43:07.422Z,12.43
2022-09-17T08:44:07.404Z,12.31
2022-09-17T08:45:07.390Z,12.25
2022-09-17T08:46:07.411Z,12.04
2022-09-17T08:47:07.363Z,11.87
2022-09-17T08:48:07.389Z,11.73
2022-09-17T08:49:07.335Z,11.65
2022-09-17T08:50:07.322Z,11.52
2022-09-17T08:51:08.608Z,11.37
2022-09-17T08:52:07.293Z,11.27
2022-09-17T08:53:07.284Z,11.25
2022-09-17T08:54:07.263Z,11.14
2022-09-17T08:55:10.254Z,11.12
2022-09-17T08:56:10.282Z,11.15
2022-09-17T08:57:07.254Z,11.05
2022-09-17T08:58:07.386Z,10.97
2022-09-17T08:59:07.205Z,10.97
2022-09-17T09:00:07.260Z,10.99
2022-09-17T09:01:07.184Z,11.02
2022-09-17T09:02:07.295Z,11.05
2022-09-17T09:03:07.153Z,11.05
2022-09-17T09:04:07.176Z,11.02
2022-09-17T09:05:07.117Z,10.96
2022-09-17T09:06:10.694Z,10.75
2022-09-17T09:07:07.097Z,10.69
2022-09-17T09:08:07.088Z,10.71
2022-09-17T09:09:07.067Z,10.72
2022-09-17T09:10:07.107Z,10.72
2022-09-17T09:11:07.040Z,10.72
2022-09-17T09:12:07.029Z,10.67
2022-09-17T09:13:07.019Z,10.69
2022-09-17T09:14:07.032Z,10.74
2022-09-17T09:15:10.001Z,10.81
2022-09-17T09:16:10.065Z,10.89
2022-09-17T09:17:06.970Z,10.92
2022-09-17T09:18:06.960Z,10.92
2022-09-17T09:19:10.257Z,10.96
2022-09-17T09:20:07.921Z,10.96
2022-09-17T09:21:07.891Z,10.96
2022-09-17T09:22:06.922Z,10.99
2022-09-17T09:23:06.892Z,10.96
2022-09-17T09:24:06.881Z,10.93
2022-09-17T09:25:06.902Z,10.90
2022-09-17T09:26:07.844Z,10.87
2022-09-17T09:27:06.883Z,10.86
2022-09-17T09:28:06.837Z,10.84
2022-09-17T09:29:06.823Z,10.76
2022-09-17T09:30:06.844Z,10.81
2022-09-17T09:31:07.583Z,10.79
2022-09-17T09:32:15.476Z,10.76
2022-09-17T09:33:07.768Z,10.75
2022-09-17T09:34:06.754Z,10.69
2022-09-17T09:35:09.750Z,10.68
2022-09-17T09:36:09.753Z,10.69
2022-09-17T09:37:06.758Z,10.67
2022-09-17T09:38:06.997Z,10.61
2022-09-17T09:39:06.687Z,10.57
2022-09-17T09:40:06.789Z,10.56
2022-09-17T09:41:07.647Z,10.54
2022-09-17T09:42:06.718Z,10.49
2022-09-17T09:43:06.640Z,10.49
2022-09-17T09:44:06.630Z,10.42
2022-09-17T09:45:06.671Z,10.40
2022-09-17T09:46:08.260Z,10.40
2022-09-17T09:47:07.209Z,10.40
2022-09-17T09:48:10.936Z,10.41
2022-09-17T09:49:07.060Z,10.41
2022-09-17T09:50:06.594Z,10.41
2022-09-17T09:51:07.515Z,10.42
2022-09-17T09:52:06.550Z,10.42
2022-09-17T09:53:06.501Z,10.41
2022-09-17T09:54:06.500Z,10.38
2022-09-17T09:55:09.479Z,10.38
2022-09-17T09:56:10.464Z,10.38
2022-09-17T09:57:06.493Z,10.37
2022-09-17T09:58:06.502Z,10.38
2022-09-17T09:59:06.463Z,10.41
2022-09-17T10:00:06.437Z,10.40
2022-09-17T10:01:07.382Z,10.41
2022-09-17T10:02:06.613Z,10.44
2022-09-17T10:03:06.450Z,10.44
2022-09-17T10:04:06.357Z,10.44
2022-09-17T10:05:06.505Z,10.48
2022-09-17T10:06:06.566Z,10.51
2022-09-17T10:07:06.515Z,10.49
2022-09-17T10:08:06.337Z,10.51
2022-09-17T10:09:06.336Z,10.49
2022-09-17T10:10:06.310Z,10.48
2022-09-17T10:11:06.366Z,10.53
2022-09-17T10:12:06.446Z,10.53
2022-09-17T10:13:06.308Z,10.59
2022-09-17T10:14:09.739Z,10.68
2022-09-17T10:15:09.218Z,10.78
2022-09-17T10:16:10.024Z,10.90
2022-09-17T10:17:06.199Z,10.96
2022-09-17T10:18:06.375Z,11.10
2022-09-17T10:19:06.518Z,11.17
2022-09-17T10:20:06.154Z,11.33
2022-09-17T10:21:06.882Z,11.47
2022-09-17T10:22:06.139Z,11.54
2022-09-17T10:23:06.129Z,11.63
2022-09-17T10:24:06.082Z,11.72
2022-09-17T10:25:06.075Z,11.81
2022-09-17T10:26:06.080Z,11.88
2022-09-17T10:27:06.072Z,11.95
2022-09-17T10:28:06.071Z,12.00
2022-09-17T10:29:06.024Z,12.12
2022-09-17T10:30:06.011Z,12.25
2022-09-17T10:31:08.950Z,12.27
2022-09-17T10:32:06.002Z,12.27
2022-09-17T10:33:06.016Z,12.24
2022-09-17T10:34:06.038Z,12.13
2022-09-17T10:35:08.934Z,12.03
2022-09-17T10:36:09.697Z,11.97
2022-09-17T10:37:05.942Z,11.97
2022-09-17T10:38:05.893Z,11.99
2022-09-17T10:39:05.907Z,11.94
2022-09-17T10:40:05.892Z,11.90
2022-09-17T10:41:05.855Z,11.99
2022-09-17T10:42:05.835Z,12.02
2022-09-17T10:43:05.819Z,12.04
2022-09-17T10:44:05.827Z,12.09
2022-09-17T10:45:05.817Z,12.09
2022-09-17T10:46:05.856Z,12.12
2022-09-17T10:47:05.899Z,12.06
2022-09-17T10:48:05.748Z,12.06
2022-09-17T10:49:05.761Z,12.07
2022-09-17T10:50:05.716Z,12.04
2022-09-17T10:51:05.730Z,12.06
2022-09-17T10:52:05.691Z,12.10
2022-09-17T10:53:05.682Z,12.10
2022-09-17T10:54:05.659Z,12.03
2022-09-17T10:55:08.671Z,11.95
2022-09-17T10:56:08.645Z,11.99
2022-09-17T10:57:05.628Z,11.97
2022-09-17T10:58:05.601Z,11.99
2022-09-17T10:59:07.041Z,11.88
2022-09-17T11:00:05.652Z,11.78
2022-09-17T11:01:05.562Z,11.72
2022-09-17T11:02:05.660Z,11.68
2022-09-17T11:03:05.532Z,11.69
2022-09-17T11:04:05.514Z,11.73
2022-09-17T11:05:05.622Z,11.75
2022-09-17T11:06:05.516Z,11.75
2022-09-17T11:07:06.459Z,11.77
2022-09-17T11:08:05.464Z,11.81
2022-09-17T11:09:05.460Z,11.77
2022-09-17T11:10:05.444Z,11.77
2022-09-17T11:11:05.445Z,11.77
2022-09-17T11:12:05.455Z,11.77
2022-09-17T11:13:05.394Z,11.75
2022-09-17T11:14:05.379Z,11.72
2022-09-17T11:15:08.373Z,11.69
2022-09-17T11:16:08.563Z,11.73
2022-09-17T11:17:05.339Z,11.77
2022-09-17T11:22:50.637Z,11.90
2022-09-17T11:23:49.306Z,11.94
2022-09-17T11:24:49.150Z,11.95
2022-09-17T11:25:49.128Z,11.91
2022-09-17T11:26:49.112Z,11.88
2022-09-17T11:27:49.115Z,11.88
2022-09-17T11:28:49.139Z,11.84
2022-09-17T11:29:49.065Z,11.75
2022-09-17T11:30:49.060Z,11.69
2022-09-17T11:31:49.106Z,11.66
2022-09-17T11:32:49.023Z,11.65
2022-09-17T11:33:49.013Z,11.63
2022-09-17T11:34:49.038Z,11.63
2022-09-17T11:35:49.003Z,11.63
2022-09-17T11:36:48.983Z,11.55
2022-09-17T11:37:48.965Z,11.52
2022-09-17T11:38:49.025Z,11.48
2022-09-17T11:39:48.943Z,11.47
2022-09-17T11:40:48.945Z,11.43
2022-09-17T11:41:51.917Z,11.41
2022-09-17T11:42:51.915Z,11.44
2022-09-17T11:43:48.878Z,11.43
2022-09-17T11:44:48.876Z,11.43
2022-09-17T11:45:48.886Z,11.44
2022-09-17T11:46:49.057Z,11.43
2022-09-17T11:47:48.831Z,11.43
2022-09-17T11:48:48.816Z,11.43
2022-09-17T11:49:48.810Z,11.44
2022-09-17T11:50:48.856Z,11.41
2022-09-17T11:51:48.778Z,11.43
2022-09-17T11:52:48.800Z,11.43
2022-09-17T11:53:48.739Z,11.45
2022-09-17T11:54:48.745Z,11.43
2022-09-17T11:55:48.710Z,11.43
2022-09-17T11:56:48.700Z,11.41
2022-09-17T11:57:48.721Z,11.44
2022-09-17T11:58:48.712Z,11.44
2022-09-17T11:59:48.669Z,11.41
2022-09-17T12:00:48.697Z,11.40
2022-09-17T12:01:51.713Z,11.41
2022-09-17T12:02:51.757Z,11.40
2022-09-17T12:03:48.623Z,11.36
2022-09-17T12:04:48.633Z,11.40
2022-09-17T12:05:48.603Z,11.41
2022-09-17T12:06:48.583Z,11.44
2022-09-17T12:07:48.574Z,11.45
2022-09-17T12:08:48.604Z,11.45
2022-09-17T12:09:48.564Z,11.44
2022-09-17T12:10:48.564Z,11.43
2022-09-17T12:11:48.517Z,11.43
2022-09-17T12:12:50.331Z,11.43
2022-09-17T12:13:48.485Z,11.41
2022-09-17T12:14:48.476Z,11.41
2022-09-17T12:15:52.951Z,11.44
2022-09-17T12:16:49.555Z,11.44
2022-09-17T12:17:48.577Z,11.45
2022-09-17T12:18:48.428Z,11.47
2022-09-17T12:19:48.407Z,11.50
2022-09-17T12:20:48.387Z,11.51
2022-09-17T12:21:51.398Z,11.51
2022-09-17T12:22:51.390Z,11.55
2022-09-17T12:23:48.349Z,11.57
2022-09-17T12:24:48.358Z,11.55
2022-09-17T12:25:48.326Z,11.59
2022-09-17T12:26:48.341Z,11.62
2022-09-17T12:27:48.319Z,11.60
2022-09-17T12:28:48.278Z,11.57
2022-09-17T12:29:48.270Z,11.59
2022-09-17T12:30:48.252Z,11.60
2022-09-17T12:31:48.343Z,11.55
2022-09-17T12:32:48.290Z,11.48
2022-09-17T12:33:48.210Z,11.41
2022-09-17T12:34:48.201Z,11.41
2022-09-17T12:36:05.176Z,11.41
2022-09-17T12:36:49.172Z,11.41
2022-09-17T12:37:48.153Z,11.40
2022-09-17T12:38:48.188Z,11.40
2022-09-17T12:39:48.143Z,11.40
2022-09-17T12:40:48.124Z,11.41
2022-09-17T12:41:51.114Z,11.40
2022-09-17T12:42:51.116Z,11.40
2022-09-17T12:43:48.116Z,11.37
2022-09-17T12:44:48.068Z,11.35
2022-09-17T12:45:50.721Z,11.32
2022-09-17T12:46:48.105Z,11.30
2022-09-17T12:47:48.028Z,11.26
2022-09-17T12:48:48.166Z,11.22
2022-09-17T12:49:48.026Z,11.12
2022-09-17T12:50:48.037Z,11.00
2022-09-17T12:51:47.966Z,10.94
2022-09-17T12:52:47.957Z,10.94
2022-09-17T12:53:47.958Z,10.90
2022-09-17T12:54:47.998Z,10.90
2022-09-17T12:55:47.927Z,10.90
2022-09-17T12:56:47.908Z,10.92